createdAt,value
2019-06-10T00:00:16.635Z,16.47
2019-06-10T00:01:16.693Z,16.47
2019-06-10T00:02:16.953Z,16.50
2019-06-10T00:03:16.219Z,16.52
2019-06-10T00:04:16.484Z,16.55
2019-06-10T00:05:16.765Z,16.52
2019-06-10T00:06:17.030Z,16.49
2019-06-10T00:07:16.294Z,16.52
2019-06-10T00:08:16.546Z,16.53
2019-06-10T00:09:16.826Z,16.59
2019-06-10T00:10:17.117Z,16.56
2019-06-10T00:11:17.197Z,16.55
2019-06-10T00:12:16.466Z,16.53
2019-06-10T00:13:16.735Z,16.50
2019-06-10T00:14:17.002Z,16.49
2019-06-10T00:15:16.277Z,16.47
2019-06-10T00:16:16.560Z,16.53
2019-06-10T00:17:16.830Z,16.55
2019-06-10T00:19:16.910Z,16.53
2019-06-10T00:20:17.185Z,16.53
2019-06-10T00:21:16.261Z,16.56
2019-06-10T00:22:17.163Z,16.60
2019-06-10T00:23:16.437Z,16.59
2019-06-10T00:24:16.721Z,16.57
2019-06-10T00:25:17.002Z,16.62
2019-06-10T00:26:16.274Z,16.62
2019-06-10T00:27:16.541Z,16.73
2019-06-10T00:28:16.807Z,16.77
2019-06-10T00:29:17.079Z,16.78
2019-06-10T00:30:16.374Z,16.77
2019-06-10T00:31:16.456Z,16.73
2019-06-10T00:32:16.714Z,16.70
2019-06-10T00:33:16.995Z,16.67
2019-06-10T00:34:16.259Z,16.70
2019-06-10T00:35:16.553Z,16.70
2019-06-10T00:36:16.814Z,16.78
2019-06-10T00:37:17.068Z,16.84
2019-06-10T00:38:16.345Z,16.86
2019-06-10T00:39:16.615Z,16.86
2019-06-10T00:40:16.906Z,16.86
2019-06-10T00:41:16.937Z,16.84
2019-06-10T00:42:17.209Z,16.84
2019-06-10T00:43:16.481Z,16.84
2019-06-10T00:44:16.757Z,16.88
2019-06-10T00:45:17.901Z,16.88
2019-06-10T00:46:16.254Z,16.86
2019-06-10T00:47:16.522Z,16.86
2019-06-10T00:48:24.974Z,16.84
2019-06-10T00:49:16.592Z,16.81
2019-06-10T00:50:16.863Z,16.86
2019-06-10T00:51:16.938Z,16.84
2019-06-10T00:52:17.205Z,16.86
2019-06-10T00:53:16.478Z,16.84
2019-06-10T00:54:16.751Z,16.86
2019-06-10T00:55:17.039Z,16.80
2019-06-10T00:56:16.587Z,16.81
2019-06-10T00:57:16.867Z,16.81
2019-06-10T00:58:17.145Z,16.81
2019-06-10T00:59:16.414Z,16.83
2019-06-10T01:00:25.111Z,16.77
2019-06-10T01:01:16.773Z,16.77
2019-06-10T01:02:17.043Z,16.74
2019-06-10T01:03:16.317Z,16.70
2019-06-10T01:04:16.693Z,16.63
2019-06-10T01:05:16.995Z,16.59
2019-06-10T01:06:16.267Z,16.60
2019-06-10T01:07:16.541Z,16.52
2019-06-10T01:08:16.814Z,16.52
2019-06-10T01:09:17.092Z,16.52
2019-06-10T01:10:16.375Z,16.49
2019-06-10T01:11:20.972Z,16.49
2019-06-10T01:12:17.221Z,16.49
2019-06-10T01:13:16.491Z,16.46
2019-06-10T01:14:16.763Z,16.40
2019-06-10T01:15:17.033Z,16.39
2019-06-10T01:16:16.302Z,16.32
2019-06-10T01:17:16.571Z,16.28
2019-06-10T01:18:31.675Z,16.24
2019-06-10T01:19:16.679Z,16.21
2019-06-10T01:20:16.943Z,16.21
2019-06-10T01:21:17.004Z,16.21
2019-06-10T01:22:17.299Z,16.19
2019-06-10T01:23:17.584Z,16.21
2019-06-10T01:24:17.482Z,16.21
2019-06-10T01:25:17.806Z,16.17
2019-06-10T01:26:18.309Z,16.15
2019-06-10T01:27:17.898Z,16.09
2019-06-10T01:28:16.925Z,16.07
2019-06-10T01:29:18.031Z,16.00
2019-06-10T01:30:18.543Z,15.97
2019-06-10T01:31:20.625Z,15.94
2019-06-10T01:32:17.680Z,15.91
2019-06-10T01:33:17.605Z,15.91
2019-06-10T01:34:18.013Z,15.88
2019-06-10T01:35:17.465Z,15.85
2019-06-10T01:36:17.845Z,15.81
2019-06-10T01:37:17.501Z,15.80
2019-06-10T01:38:18.274Z,15.77
2019-06-10T01:39:16.846Z,15.74
2019-06-10T01:40:17.922Z,15.74
2019-06-10T01:41:16.707Z,15.63
2019-06-10T01:42:17.208Z,15.62
2019-06-10T01:43:18.158Z,15.57
2019-06-10T01:44:17.664Z,15.57
2019-06-10T01:45:17.284Z,15.52
2019-06-10T01:46:17.482Z,15.53
2019-06-10T01:47:17.537Z,15.45
2019-06-10T01:48:17.907Z,15.43
2019-06-10T01:49:16.709Z,15.50
2019-06-10T01:50:17.262Z,15.47
2019-06-10T01:51:17.400Z,15.39
2019-06-10T01:52:17.940Z,15.41
2019-06-10T01:53:17.555Z,15.35
2019-06-10T01:54:18.359Z,15.36
2019-06-10T01:55:16.962Z,15.43
2019-06-10T01:56:17.301Z,15.54
2019-06-10T01:57:16.989Z,15.52
2019-06-10T01:58:18.817Z,15.45
2019-06-10T01:59:17.011Z,15.52
2019-06-10T02:00:21.144Z,15.54
2019-06-10T02:01:18.617Z,15.57
2019-06-10T02:02:17.714Z,15.60
2019-06-10T02:03:18.083Z,15.70
2019-06-10T02:04:18.066Z,15.80
2019-06-10T02:05:18.237Z,15.90
2019-06-10T02:06:20.334Z,15.91
2019-06-10T02:07:18.403Z,15.82
2019-06-10T02:08:17.741Z,15.64
2019-06-10T02:09:17.146Z,15.56
2019-06-10T02:10:18.659Z,15.50
2019-06-10T02:11:18.803Z,15.49
2019-06-10T02:12:17.899Z,15.47
2019-06-10T02:13:17.596Z,15.47
2019-06-10T02:14:18.202Z,15.42
2019-06-10T02:15:17.060Z,15.38
2019-06-10T02:16:17.452Z,15.35
2019-06-10T02:17:17.584Z,15.33
2019-06-10T02:18:16.470Z,15.33
2019-06-10T02:19:17.400Z,15.36
2019-06-10T02:20:18.383Z,15.31
2019-06-10T02:21:18.247Z,15.31
2019-06-10T02:22:17.918Z,15.31
2019-06-10T02:23:17.052Z,15.28
2019-06-10T02:24:17.598Z,15.26
2019-06-10T02:25:16.736Z,15.26
2019-06-10T02:26:17.977Z,15.28
2019-06-10T02:27:17.429Z,15.26
2019-06-10T02:28:17.429Z,15.28
2019-06-10T02:29:17.287Z,15.26
2019-06-10T02:30:28.022Z,15.28
2019-06-10T02:31:19.754Z,15.31
2019-06-10T02:32:20.704Z,15.32
2019-06-10T02:33:20.550Z,15.32
2019-06-10T02:34:20.142Z,15.28
2019-06-10T02:35:26.976Z,15.28
2019-06-10T02:36:20.016Z,15.26
2019-06-10T02:37:20.080Z,15.31
2019-06-10T02:38:21.489Z,15.28
2019-06-10T02:39:22.243Z,15.25
2019-06-10T02:40:20.697Z,15.19
2019-06-10T02:41:20.549Z,15.18
2019-06-10T02:42:18.997Z,15.16
2019-06-10T02:43:20.290Z,15.16
2019-06-10T02:44:20.829Z,15.14
2019-06-10T02:45:18.250Z,15.12
2019-06-10T02:46:19.467Z,15.12
2019-06-10T02:47:18.909Z,15.08
2019-06-10T02:48:20.079Z,15.09
2019-06-10T02:49:29.278Z,15.09
2019-06-10T02:50:21.313Z,15.12
2019-06-10T02:51:18.086Z,15.14
2019-06-10T02:52:19.163Z,15.11
2019-06-10T02:53:17.248Z,15.08
2019-06-10T02:54:20.156Z,15.05
2019-06-10T02:55:17.775Z,15.04
2019-06-10T02:56:17.639Z,15.02
2019-06-10T02:57:18.166Z,15.04
2019-06-10T02:58:18.964Z,15.02
2019-06-10T02:59:17.795Z,15.04
2019-06-10T03:00:23.331Z,15.04
2019-06-10T03:01:19.112Z,15.02
2019-06-10T03:02:18.231Z,15.01
2019-06-10T03:03:22.664Z,15.02
2019-06-10T03:04:18.236Z,15.02
2019-06-10T03:05:19.388Z,15.04
2019-06-10T03:06:17.777Z,15.08
2019-06-10T03:07:17.878Z,15.12
2019-06-10T03:08:17.952Z,15.15
2019-06-10T03:09:18.366Z,15.14
2019-06-10T03:10:19.043Z,15.15
2019-06-10T03:11:18.730Z,15.19
2019-06-10T03:12:17.630Z,15.19
2019-06-10T03:13:17.621Z,15.12
2019-06-10T03:14:17.713Z,15.11
2019-06-10T03:15:17.852Z,15.11
2019-06-10T03:16:16.239Z,15.09
2019-06-10T03:17:17.697Z,15.05
2019-06-10T03:18:17.797Z,15.04
2019-06-10T03:19:29.767Z,14.99
2019-06-10T03:20:16.480Z,15.02
2019-06-10T03:21:16.549Z,15.01
2019-06-10T03:22:17.961Z,14.99
2019-06-10T03:23:16.296Z,15.02
2019-06-10T03:24:16.993Z,15.01
2019-06-10T03:25:16.416Z,14.98
2019-06-10T03:26:17.237Z,15.01
2019-06-10T03:27:16.573Z,15.01
2019-06-10T03:28:17.401Z,14.97
2019-06-10T03:29:16.744Z,15.01
2019-06-10T03:30:21.872Z,14.97
2019-06-10T03:31:18.697Z,14.95
2019-06-10T03:32:17.559Z,14.92
2019-06-10T03:33:17.657Z,14.94
2019-06-10T03:34:18.004Z,14.87
2019-06-10T03:35:17.339Z,14.85
2019-06-10T03:36:17.900Z,14.84
2019-06-10T03:37:16.499Z,14.83
2019-06-10T03:38:16.767Z,14.81
2019-06-10T03:39:17.058Z,14.85
2019-06-10T03:40:16.509Z,14.81
2019-06-10T03:41:16.534Z,14.83
2019-06-10T03:42:16.836Z,14.83
2019-06-10T03:43:17.105Z,14.80
2019-06-10T03:44:16.895Z,14.77
2019-06-10T03:45:17.402Z,14.77
2019-06-10T03:46:17.220Z,14.74
2019-06-10T03:47:17.051Z,14.76
2019-06-10T03:48:17.069Z,14.77
2019-06-10T03:49:17.115Z,14.81
2019-06-10T03:50:17.139Z,14.87
2019-06-10T03:51:17.154Z,14.84
2019-06-10T03:52:17.113Z,14.85
2019-06-10T03:53:17.174Z,14.87
2019-06-10T03:54:17.144Z,14.78
2019-06-10T03:55:17.212Z,14.78
2019-06-10T03:56:17.127Z,14.77
2019-06-10T03:57:17.150Z,14.76
2019-06-10T03:58:17.436Z,14.76
2019-06-10T03:59:17.173Z,14.78
2019-06-10T04:00:17.439Z,14.74
2019-06-10T04:01:17.374Z,14.73
2019-06-10T04:02:17.289Z,14.70
2019-06-10T04:03:17.320Z,14.71
2019-06-10T04:04:17.361Z,14.70
2019-06-10T04:05:17.445Z,14.73
2019-06-10T04:06:17.438Z,14.74
2019-06-10T04:07:18.053Z,14.74
2019-06-10T04:08:17.424Z,14.74
2019-06-10T04:09:17.417Z,14.78
2019-06-10T04:10:17.489Z,14.77
2019-06-10T04:11:17.418Z,14.77
2019-06-10T04:12:17.455Z,14.77
2019-06-10T04:13:17.457Z,14.78
2019-06-10T04:14:17.565Z,14.78
2019-06-10T04:15:17.589Z,14.78
2019-06-10T04:16:17.599Z,14.77
2019-06-10T04:17:17.521Z,14.78
2019-06-10T04:18:17.806Z,14.80
2019-06-10T04:19:17.319Z,14.80
2019-06-10T04:20:17.716Z,14.83
2019-06-10T04:21:17.625Z,14.81
2019-06-10T04:22:17.597Z,14.84
2019-06-10T04:23:17.689Z,14.87
2019-06-10T04:24:17.652Z,14.90
2019-06-10T04:25:17.746Z,14.95
2019-06-10T04:26:17.763Z,14.97
2019-06-10T04:27:17.676Z,14.97
2019-06-10T04:28:17.767Z,14.98
2019-06-10T04:29:17.887Z,14.99
2019-06-10T04:30:16.685Z,15.02
2019-06-10T04:31:16.298Z,15.06
2019-06-10T04:32:16.567Z,15.09
2019-06-10T04:33:16.831Z,15.12
2019-06-10T04:34:16.586Z,15.16
2019-06-10T04:35:16.861Z,15.26
2019-06-10T04:36:16.580Z,15.31
2019-06-10T04:37:16.850Z,15.36
2019-06-10T04:38:16.570Z,15.42
2019-06-10T04:39:16.894Z,15.43
2019-06-10T04:40:16.681Z,15.45
2019-06-10T04:41:16.752Z,15.45
2019-06-10T04:42:18.044Z,15.47
2019-06-10T04:43:16.654Z,15.47
2019-06-10T04:44:16.934Z,15.50
2019-06-10T04:45:18.548Z,15.50
2019-06-10T04:46:16.977Z,15.53
2019-06-10T04:47:16.251Z,15.54
2019-06-10T04:48:16.526Z,15.57
2019-06-10T04:49:16.800Z,15.56
2019-06-10T04:50:24.520Z,15.62
2019-06-10T04:51:16.722Z,15.60
2019-06-10T04:52:16.986Z,15.63
2019-06-10T04:53:16.250Z,15.64
2019-06-10T04:54:16.515Z,15.66
2019-06-10T04:55:16.799Z,15.66
2019-06-10T04:56:17.455Z,15.66
2019-06-10T04:57:16.761Z,15.67
2019-06-10T04:58:17.050Z,15.69
2019-06-10T04:59:16.336Z,15.69
2019-06-10T05:00:16.614Z,15.70
2019-06-10T05:01:16.673Z,15.69
2019-06-10T05:02:16.944Z,15.74
2019-06-10T05:03:16.218Z,15.74
2019-06-10T05:04:16.494Z,15.77
2019-06-10T05:05:16.768Z,15.81
2019-06-10T05:06:17.040Z,15.87
2019-06-10T05:07:16.304Z,15.92
2019-06-10T05:08:16.578Z,15.97
2019-06-10T05:09:16.845Z,15.90
2019-06-10T05:10:17.117Z,15.90
2019-06-10T05:11:17.286Z,15.94
2019-06-10T05:12:16.553Z,15.94
2019-06-10T05:13:16.817Z,15.92
2019-06-10T05:14:17.091Z,15.90
2019-06-10T05:15:16.369Z,15.90
2019-06-10T05:16:16.648Z,15.97
2019-06-10T05:17:17.038Z,15.98
2019-06-10T05:18:16.313Z,16.05
2019-06-10T05:19:16.573Z,16.07
2019-06-10T05:20:16.847Z,16.14
2019-06-10T05:21:16.904Z,16.19
2019-06-10T05:22:17.165Z,16.19
2019-06-10T05:23:16.433Z,16.24
2019-06-10T05:24:16.697Z,16.28
2019-06-10T05:25:16.961Z,16.27
2019-06-10T05:26:16.218Z,16.15
2019-06-10T05:27:16.476Z,16.18
2019-06-10T05:28:16.743Z,16.24
2019-06-10T05:29:17.026Z,16.35
2019-06-10T05:30:16.301Z,16.33
2019-06-10T05:31:16.347Z,16.36
2019-06-10T05:32:16.653Z,16.28
2019-06-10T05:33:16.923Z,16.28
2019-06-10T05:34:17.186Z,16.29
2019-06-10T05:35:16.464Z,16.33
2019-06-10T05:36:16.750Z,16.42
2019-06-10T05:37:17.010Z,16.46
2019-06-10T05:38:16.288Z,16.46
2019-06-10T05:39:16.567Z,16.53
2019-06-10T05:40:16.864Z,16.57
2019-06-10T05:41:16.900Z,16.57
2019-06-10T05:42:17.172Z,16.60
2019-06-10T05:43:16.432Z,16.57
2019-06-10T05:44:16.714Z,16.62
2019-06-10T05:45:16.981Z,16.60
2019-06-10T05:46:16.254Z,16.68
2019-06-10T05:47:16.517Z,16.63
2019-06-10T05:48:16.941Z,16.64
2019-06-10T05:49:16.247Z,16.70
2019-06-10T05:50:16.516Z,16.74
2019-06-10T05:51:16.583Z,16.73
2019-06-10T05:52:16.860Z,16.74
2019-06-10T05:53:17.132Z,16.74
2019-06-10T05:54:16.398Z,16.67
2019-06-10T05:55:16.666Z,16.68
2019-06-10T05:56:16.929Z,16.76
2019-06-10T05:57:17.206Z,16.76
2019-06-10T05:58:16.479Z,16.81
2019-06-10T05:59:16.749Z,16.84
2019-06-10T06:00:17.031Z,16.90
2019-06-10T06:01:17.081Z,16.88
2019-06-10T06:02:16.358Z,16.94
2019-06-10T06:03:16.634Z,16.91
2019-06-10T06:04:16.894Z,16.97
2019-06-10T06:05:17.166Z,17.01
2019-06-10T06:06:16.436Z,17.13
2019-06-10T06:07:16.704Z,17.05
2019-06-10T06:08:16.973Z,17.03
2019-06-10T06:09:16.242Z,17.04
2019-06-10T06:10:16.515Z,17.04
2019-06-10T06:11:16.582Z,17.05
2019-06-10T06:12:16.853Z,17.14
2019-06-10T06:13:17.108Z,17.19
2019-06-10T06:14:16.384Z,17.22
2019-06-10T06:15:16.662Z,17.26
2019-06-10T06:16:16.932Z,17.25
2019-06-10T06:17:16.872Z,17.19
2019-06-10T06:18:17.160Z,17.19
2019-06-10T06:19:16.433Z,17.25
2019-06-10T06:20:16.720Z,17.28
2019-06-10T06:21:24.792Z,17.26
2019-06-10T06:22:16.665Z,17.31
2019-06-10T06:23:16.937Z,17.29
2019-06-10T06:24:17.237Z,17.17
2019-06-10T06:25:16.535Z,17.17
2019-06-10T06:26:16.868Z,17.29
2019-06-10T06:27:17.139Z,17.36
2019-06-10T06:28:16.432Z,17.18
2019-06-10T06:29:16.707Z,17.14
2019-06-10T06:30:18.785Z,17.25
2019-06-10T06:31:17.047Z,17.33
2019-06-10T06:32:16.320Z,17.36
2019-06-10T06:33:16.584Z,17.42
2019-06-10T06:34:16.883Z,17.48
2019-06-10T06:35:16.228Z,17.52
2019-06-10T06:36:16.507Z,17.53
2019-06-10T06:37:16.791Z,17.59
2019-06-10T06:38:17.085Z,17.60
2019-06-10T06:39:16.358Z,17.65
2019-06-10T06:40:16.641Z,17.69
2019-06-10T06:41:16.687Z,17.69
2019-06-10T06:42:16.946Z,17.80
2019-06-10T06:43:16.215Z,17.90
2019-06-10T06:44:16.479Z,18.01
2019-06-10T06:45:16.754Z,17.86
2019-06-10T06:46:17.029Z,17.84
2019-06-10T06:47:16.298Z,17.73
2019-06-10T06:48:16.567Z,17.87
2019-06-10T06:49:16.833Z,18.18
2019-06-10T06:50:17.109Z,18.17
2019-06-10T06:51:24.988Z,17.96
2019-06-10T06:52:16.499Z,18.10
2019-06-10T06:53:24.165Z,18.18
2019-06-10T06:54:16.510Z,18.33
2019-06-10T06:55:16.788Z,18.36
2019-06-10T06:56:17.049Z,18.48
2019-06-10T06:57:16.321Z,18.51
2019-06-10T06:58:16.591Z,18.45
2019-06-10T06:59:16.866Z,18.52
2019-06-10T07:00:38.018Z,18.52
2019-06-10T07:01:16.496Z,18.52
2019-06-10T07:02:16.766Z,18.51
2019-06-10T07:03:17.040Z,18.49
2019-06-10T07:04:16.309Z,18.55
2019-06-10T07:05:16.579Z,18.60
2019-06-10T07:06:16.849Z,18.56
2019-06-10T07:07:17.121Z,18.45
2019-06-10T07:08:16.420Z,18.22
2019-06-10T07:09:16.683Z,18.17
2019-06-10T07:10:16.956Z,18.21
2019-06-10T07:11:17.041Z,18.28
2019-06-10T07:12:16.311Z,18.15
2019-06-10T07:13:16.579Z,18.27
2019-06-10T07:14:16.853Z,18.24
2019-06-10T07:15:17.123Z,18.31
2019-06-10T07:16:16.393Z,18.19
2019-06-10T07:17:16.657Z,18.25
2019-06-10T07:18:16.932Z,18.22
2019-06-10T07:19:16.219Z,18.14
2019-06-10T07:20:16.510Z,18.35
2019-06-10T07:21:16.586Z,18.48
2019-06-10T07:22:16.872Z,18.55
2019-06-10T07:23:16.251Z,18.10
2019-06-10T07:24:16.523Z,18.22
2019-06-10T07:25:16.790Z,18.15
2019-06-10T07:26:17.070Z,18.14
2019-06-10T07:27:16.333Z,18.17
2019-06-10T07:28:16.602Z,18.08
2019-06-10T07:29:16.865Z,18.03
2019-06-10T07:30:17.147Z,18.07
2019-06-10T07:31:23.735Z,18.15
2019-06-10T07:32:16.261Z,17.97
2019-06-10T07:33:16.521Z,17.94
2019-06-10T07:34:16.782Z,18.01
2019-06-10T07:35:17.072Z,17.98
2019-06-10T07:36:16.346Z,17.98
2019-06-10T07:37:16.619Z,18.11
2019-06-10T07:38:16.894Z,18.11
2019-06-10T07:39:17.162Z,18.10
2019-06-10T07:40:16.437Z,18.11
2019-06-10T07:41:16.502Z,18.12
2019-06-10T07:42:16.767Z,18.07
2019-06-10T07:43:17.032Z,18.05
2019-06-10T07:44:16.310Z,18.10
2019-06-10T07:45:16.576Z,18.04
2019-06-10T07:46:16.853Z,18.11
2019-06-10T07:47:17.116Z,18.12
2019-06-10T07:48:16.395Z,18.08
2019-06-10T07:49:16.711Z,18.07
2019-06-10T07:50:17.022Z,18.04
2019-06-10T07:51:17.078Z,17.98
2019-06-10T07:52:19.621Z,17.83
2019-06-10T07:53:16.472Z,17.86
2019-06-10T07:54:16.742Z,17.79
2019-06-10T07:55:17.011Z,17.76
2019-06-10T07:56:16.283Z,17.76
2019-06-10T07:57:16.553Z,17.87
2019-06-10T07:58:16.822Z,17.83
2019-06-10T07:59:17.102Z,17.91
2019-06-10T08:00:16.391Z,17.87
2019-06-10T08:01:16.455Z,17.90
2019-06-10T08:02:16.728Z,17.87
2019-06-10T08:03:16.990Z,17.81
2019-06-10T08:04:16.279Z,17.93
2019-06-10T08:05:16.600Z,17.90
2019-06-10T08:06:16.890Z,17.93
2019-06-10T08:07:17.178Z,17.89
2019-06-10T08:08:16.454Z,17.91
2019-06-10T08:09:16.725Z,17.97
2019-06-10T08:10:16.993Z,18.03
2019-06-10T08:11:17.070Z,18.04
2019-06-10T08:12:16.369Z,17.94
2019-06-10T08:13:16.653Z,17.83
2019-06-10T08:14:16.919Z,17.80
2019-06-10T08:15:17.182Z,17.81
2019-06-10T08:16:16.454Z,17.91
2019-06-10T08:17:16.728Z,18.11
2019-06-10T08:18:16.990Z,18.00
2019-06-10T08:19:29.240Z,18.07
2019-06-10T08:20:16.224Z,18.29
2019-06-10T08:21:16.283Z,18.44
2019-06-10T08:22:27.575Z,18.49
2019-06-10T08:23:17.167Z,18.54
2019-06-10T08:24:16.443Z,18.56
2019-06-10T08:25:16.713Z,18.46
2019-06-10T08:26:16.986Z,18.29
2019-06-10T08:27:16.261Z,18.32
2019-06-10T08:28:16.542Z,18.35
2019-06-10T08:29:16.815Z,18.52
2019-06-10T08:30:22.740Z,18.45
2019-06-10T08:31:17.152Z,18.55
2019-06-10T08:32:16.429Z,18.39
2019-06-10T08:33:16.697Z,18.39
2019-06-10T08:34:16.963Z,18.33
2019-06-10T08:35:16.231Z,18.36
2019-06-10T08:36:16.504Z,18.38
2019-06-10T08:37:16.762Z,18.36
2019-06-10T08:38:17.058Z,18.36
2019-06-10T08:39:16.351Z,18.70
2019-06-10T08:40:16.619Z,18.70
2019-06-10T08:41:16.680Z,18.76
2019-06-10T08:42:16.972Z,18.76
2019-06-10T08:43:16.243Z,18.77
2019-06-10T08:44:16.519Z,18.93
2019-06-10T08:45:16.785Z,18.79
2019-06-10T08:46:17.355Z,18.80
2019-06-10T08:47:16.620Z,18.77
2019-06-10T08:48:16.896Z,18.67
2019-06-10T08:49:17.154Z,19.04
2019-06-10T08:50:16.442Z,19.21
2019-06-10T08:51:16.506Z,19.14
2019-06-10T08:52:16.771Z,18.76
2019-06-10T08:53:18.174Z,18.58
2019-06-10T08:54:16.697Z,18.65
2019-06-10T08:55:16.984Z,18.80
2019-06-10T08:56:16.249Z,18.87
2019-06-10T08:57:16.507Z,18.87
2019-06-10T08:58:16.807Z,18.83
2019-06-10T08:59:17.079Z,18.59
2019-06-10T09:00:18.683Z,18.72
2019-06-10T09:01:16.423Z,19.03
2019-06-10T09:02:16.705Z,19.10
2019-06-10T09:03:16.965Z,19.04
2019-06-10T09:04:16.231Z,19.07
2019-06-10T09:05:16.501Z,18.76
2019-06-10T09:06:16.793Z,18.77
2019-06-10T09:07:17.061Z,18.91
2019-06-10T09:08:16.330Z,18.73
2019-06-10T09:09:16.597Z,18.67
2019-06-10T09:10:16.874Z,18.83
2019-06-10T09:11:20.327Z,19.07
2019-06-10T09:12:29.854Z,19.07
2019-06-10T09:13:16.602Z,19.10
2019-06-10T09:14:16.866Z,19.15
2019-06-10T09:15:17.129Z,19.22
2019-06-10T09:16:19.292Z,19.07
2019-06-10T09:17:16.870Z,19.17
2019-06-10T09:18:19.934Z,19.08
2019-06-10T09:19:16.428Z,19.32
2019-06-10T09:20:16.707Z,19.39
2019-06-10T09:21:16.757Z,19.41
2019-06-10T09:22:17.037Z,19.65
2019-06-10T09:23:22.034Z,19.60
2019-06-10T09:24:16.749Z,19.52
2019-06-10T09:25:17.021Z,19.48
2019-06-10T09:26:16.292Z,18.98
2019-06-10T09:27:16.563Z,19.32
2019-06-10T09:28:16.841Z,19.48
2019-06-10T09:29:17.117Z,19.70
2019-06-10T09:30:16.386Z,19.74
2019-06-10T09:31:16.452Z,19.48
2019-06-10T09:32:16.721Z,19.08
2019-06-10T09:33:16.990Z,19.21
2019-06-10T09:34:16.253Z,19.31
2019-06-10T09:35:16.515Z,19.37
2019-06-10T09:36:16.773Z,19.01
2019-06-10T09:37:17.040Z,19.15
2019-06-10T09:38:16.733Z,19.55
2019-06-10T09:39:17.030Z,19.52
2019-06-10T09:40:16.314Z,19.31
2019-06-10T09:41:16.382Z,19.17
2019-06-10T09:42:16.686Z,19.07
2019-06-10T09:43:16.993Z,19.15
2019-06-10T09:44:16.265Z,19.22
2019-06-10T09:45:16.536Z,19.30
2019-06-10T09:46:16.802Z,19.55
2019-06-10T09:47:17.069Z,19.60
2019-06-10T09:48:16.338Z,19.73
2019-06-10T09:49:16.602Z,19.74
2019-06-10T09:50:16.888Z,19.87
2019-06-10T09:51:16.922Z,19.72
2019-06-10T09:52:17.192Z,19.62
2019-06-10T09:53:26.577Z,19.41
2019-06-10T09:54:16.222Z,19.35
2019-06-10T09:55:16.502Z,19.46
2019-06-10T09:56:16.764Z,19.52
2019-06-10T09:57:17.033Z,19.39
2019-06-10T09:58:16.306Z,19.42
2019-06-10T09:59:16.573Z,19.21
2019-06-10T10:00:16.867Z,19.37
2019-06-10T10:01:16.905Z,19.42
2019-06-10T10:02:17.176Z,19.73
2019-06-10T10:03:16.442Z,19.89
2019-06-10T10:04:16.730Z,20.01
2019-06-10T10:05:17.005Z,19.55
2019-06-10T10:06:16.288Z,19.74
2019-06-10T10:07:16.610Z,19.90
2019-06-10T10:08:16.872Z,20.01
2019-06-10T10:09:17.141Z,20.03
2019-06-10T10:10:16.423Z,20.00
2019-06-10T10:11:16.481Z,19.93
2019-06-10T10:12:16.742Z,19.97
2019-06-10T10:13:17.008Z,19.99
2019-06-10T10:14:16.286Z,19.83
2019-06-10T10:15:27.286Z,19.49
2019-06-10T10:16:17.083Z,19.76
2019-06-10T10:17:16.351Z,19.55
2019-06-10T10:18:16.692Z,19.86
2019-06-10T10:19:17.105Z,19.83
2019-06-10T10:20:16.426Z,19.56
2019-06-10T10:21:16.487Z,19.66
2019-06-10T10:22:16.753Z,19.90
2019-06-10T10:23:17.023Z,19.72
2019-06-10T10:24:16.288Z,19.96
2019-06-10T10:25:16.561Z,19.97
2019-06-10T10:26:16.833Z,20.07
2019-06-10T10:27:17.096Z,20.35
2019-06-10T10:28:16.363Z,20.25
2019-06-10T10:29:16.646Z,20.56
2019-06-10T10:30:16.927Z,20.60
2019-06-10T10:31:16.991Z,19.76
2019-06-10T10:32:16.285Z,20.28
2019-06-10T10:33:16.567Z,20.44
2019-06-10T10:34:16.831Z,20.65
2019-06-10T10:35:17.105Z,20.69
2019-06-10T10:36:16.376Z,20.92
2019-06-10T10:37:16.641Z,21.02
2019-06-10T10:38:16.966Z,20.89
2019-06-10T10:39:16.242Z,20.87
2019-06-10T10:40:16.512Z,20.76
2019-06-10T10:41:16.587Z,20.76
2019-06-10T10:42:16.850Z,20.69
2019-06-10T10:43:28.258Z,20.44
2019-06-10T10:44:17.185Z,20.46
2019-06-10T10:45:16.464Z,20.73
2019-06-10T10:46:16.744Z,21.10
2019-06-10T10:47:17.012Z,21.18
2019-06-10T10:48:16.282Z,20.38
2019-06-10T10:49:16.561Z,20.75
2019-06-10T10:50:16.835Z,20.99
2019-06-10T10:51:17.592Z,21.04
2019-06-10T10:52:16.917Z,21.61
2019-06-10T10:53:17.183Z,21.64
2019-06-10T10:54:22.163Z,22.07
2019-06-10T10:55:16.305Z,22.15
2019-06-10T10:56:16.578Z,22.24
2019-06-10T10:57:16.847Z,21.86
2019-06-10T10:58:17.117Z,21.93
2019-06-10T10:59:16.395Z,22.17
2019-06-10T11:00:16.674Z,22.26
2019-06-10T11:01:16.745Z,22.16
2019-06-10T11:02:17.031Z,22.12
2019-06-10T11:03:16.312Z,21.75
2019-06-10T11:04:16.586Z,21.14
2019-06-10T11:05:16.845Z,20.80
2019-06-10T11:06:17.118Z,21.11
2019-06-10T11:07:16.385Z,21.09
2019-06-10T11:08:16.657Z,21.17
2019-06-10T11:09:16.919Z,21.45
2019-06-10T11:10:17.220Z,21.45
2019-06-10T11:11:16.262Z,21.66
2019-06-10T11:12:16.530Z,21.58
2019-06-10T11:13:16.802Z,21.40
2019-06-10T11:14:17.067Z,21.64
2019-06-10T11:15:16.338Z,21.96
2019-06-10T11:16:16.599Z,22.23
2019-06-10T11:17:16.873Z,22.03
2019-06-10T11:18:17.140Z,22.28
2019-06-10T11:19:16.425Z,22.10
2019-06-10T11:20:16.702Z,22.00
2019-06-10T11:21:16.785Z,22.35
2019-06-10T11:22:17.046Z,22.30
2019-06-10T11:23:16.319Z,22.21
2019-06-10T11:24:32.649Z,22.35
2019-06-10T11:25:16.877Z,22.55
2019-06-10T11:26:17.153Z,22.40
2019-06-10T11:27:16.463Z,22.20
2019-06-10T11:28:16.733Z,22.21
2019-06-10T11:29:17.006Z,21.40
2019-06-10T11:30:16.301Z,22.28
2019-06-10T11:31:16.336Z,22.38
2019-06-10T11:32:16.608Z,22.72
2019-06-10T11:33:16.876Z,22.75
2019-06-10T11:34:19.725Z,23.18
2019-06-10T11:35:16.251Z,22.70
2019-06-10T11:36:16.514Z,22.21
2019-06-10T11:37:16.777Z,22.37
2019-06-10T11:38:17.042Z,22.68
2019-06-10T11:39:16.317Z,22.51
2019-06-10T11:40:16.593Z,22.72
2019-06-10T11:41:16.665Z,23.09
2019-06-10T11:42:16.929Z,22.60
2019-06-10T11:43:17.202Z,22.83
2019-06-10T11:44:16.484Z,22.31
2019-06-10T11:45:16.759Z,22.37
2019-06-10T11:46:17.035Z,22.44
2019-06-10T11:47:16.297Z,22.09
2019-06-10T11:48:16.568Z,22.34
2019-06-10T11:49:16.837Z,22.48
2019-06-10T11:50:17.105Z,23.15
2019-06-10T11:51:17.175Z,22.91
2019-06-10T11:52:16.460Z,23.47
2019-06-10T11:53:16.731Z,23.18
2019-06-10T11:54:16.990Z,23.25
2019-06-10T11:55:19.045Z,23.75
2019-06-10T11:56:16.803Z,24.12
2019-06-10T11:57:17.296Z,23.85
2019-06-10T11:58:16.568Z,23.47
2019-06-10T11:59:16.837Z,23.54
2019-06-10T12:00:17.469Z,23.74
2019-06-10T12:01:17.164Z,23.47
2019-06-10T12:02:16.427Z,23.80
2019-06-10T12:03:16.697Z,23.78
2019-06-10T12:04:16.968Z,23.67
2019-06-10T12:05:18.358Z,23.67
2019-06-10T12:06:16.622Z,23.58
2019-06-10T12:07:16.890Z,23.40
2019-06-10T12:08:17.198Z,23.05
2019-06-10T12:09:16.477Z,22.68
2019-06-10T12:10:16.760Z,22.92
2019-06-10T12:11:16.821Z,22.31
2019-06-10T12:12:17.117Z,22.68
2019-06-10T12:13:16.386Z,22.55
2019-06-10T12:14:16.663Z,23.81
2019-06-10T12:15:16.945Z,23.37
2019-06-10T12:17:29.421Z,23.26
2019-06-10T12:18:16.853Z,22.93
2019-06-10T12:19:17.125Z,22.45
2019-06-10T12:20:16.397Z,22.55
2019-06-10T12:21:16.524Z,23.12
2019-06-10T12:22:16.853Z,23.78
2019-06-10T12:23:17.123Z,24.55
2019-06-10T12:24:16.408Z,24.50
2019-06-10T12:25:30.762Z,24.47
2019-06-10T12:26:17.024Z,24.44
2019-06-10T12:27:16.293Z,24.31
2019-06-10T12:28:16.566Z,24.21
2019-06-10T12:29:17.448Z,24.10
2019-06-10T12:30:16.794Z,24.19
2019-06-10T12:31:16.835Z,24.41
2019-06-10T12:32:17.118Z,24.46
2019-06-10T12:33:21.242Z,24.28
2019-06-10T12:34:16.574Z,24.17
2019-06-10T12:35:16.876Z,24.20
2019-06-10T12:36:17.154Z,24.28
2019-06-10T12:37:16.432Z,24.34
2019-06-10T12:38:16.709Z,24.21
2019-06-10T12:39:17.394Z,23.95
2019-06-10T12:40:16.919Z,23.96
2019-06-10T12:41:16.946Z,23.62
2019-06-10T12:42:16.302Z,23.52
2019-06-10T12:43:16.568Z,23.47
2019-06-10T12:44:16.861Z,23.50
2019-06-10T12:45:17.128Z,23.64
2019-06-10T12:46:16.398Z,23.48
2019-06-10T12:47:16.903Z,23.64
2019-06-10T12:48:16.240Z,23.66
2019-06-10T12:49:18.370Z,23.66
2019-06-10T12:50:16.986Z,23.84
2019-06-10T12:51:17.039Z,23.85
2019-06-10T12:52:16.309Z,24.00
2019-06-10T12:53:16.583Z,23.98
2019-06-10T12:54:16.864Z,23.98